Time;durP1;ratioP1;P1;durP2;ratioP2;P2;SDS_P1;SDS_P2;PMS_P1;PMS_P2;Temp;Humidity;BMP_temperature;BMP_pressure;BME280_temperature;BME280_humidity;BME280_pressure;Samples;Min_cycle;Max_cycle;Signal;HPM_P1;HPM_P2
2023/08/01 00:00:07;;;;;;;5.53;2.65;;;;;;;27.92;52.69;98176.44;2084193;28;20090;-49
2023/08/01 00:01:08;;;;;;;5.88;2.63;;;;;;;27.89;52.97;98190.59;2080058;28;20044;-53
2023/08/01 00:02:09;;;;;;;5.65;2.80;;;;;;;27.90;52.87;98181.34;2078293;28;20094;-49
2023/08/01 00:03:10;;;;;;;3.38;1.90;;;;;;;27.91;52.82;98182.97;2084600;28;20128;-51
2023/08/01 00:04:12;;;;;;;4.85;3.05;;;;;;;27.94;52.79;98179.69;2084520;28;20045;-54
2023/08/01 00:05:14;;;;;;;3.88;2.33;;;;;;;27.92;52.79;98171.81;2086889;28;20135;-52
2023/08/01 00:06:16;;;;;;;4.85;2.45;;;;;;;27.92;52.61;98179.19;2080588;28;20144;-55
2023/08/01 00:07:17;;;;;;;6.38;3.72;;;;;;;27.92;52.80;98173.72;2085768;28;20068;-52
2023/08/01 00:08:19;;;;;;;4.25;2.67;;;;;;;27.91;52.78;98170.16;2082246;28;20045;-53
2023/08/01 00:09:19;;;;;;;4.78;2.55;;;;;;;27.95;52.42;98178.63;2086246;28;20048;-54
2023/08/01 00:10:21;;;;;;;4.43;2.88;;;;;;;27.96;52.49;98169.34;2082337;28;20056;-52
2023/08/01 00:11:22;;;;;;;6.05;2.35;;;;;;;27.94;52.57;98168.78;2081970;28;20052;-54
2023/08/01 00:12:26;;;;;;;5.78;2.60;;;;;;;27.95;52.33;98162.25;2083702;28;20080;-52
2023/08/01 00:13:26;;;;;;;5.03;2.35;;;;;;;27.92;52.46;98162.81;2084667;28;20345;-54
2023/08/01 00:14:28;;;;;;;4.90;3.00;;;;;;;27.91;52.35;98164.72;2084147;28;20052;-49
2023/08/01 00:15:29;;;;;;;8.40;2.95;;;;;;;27.92;52.77;98169.09;2080296;28;20063;-53
2023/08/01 00:16:32;;;;;;;5.25;3.42;;;;;;;27.87;52.68;98162.84;2083569;28;20414;-54
2023/08/01 00:17:33;;;;;;;6.93;2.63;;;;;;;27.89;52.82;98166.06;2083757;28;20718;-53
2023/08/01 00:18:33;;;;;;;4.68;2.40;;;;;;;27.91;52.58;98163.91;2084283;28;20064;-53
2023/08/01 00:19:35;;;;;;;7.35;2.90;;;;;;;27.92;52.69;98157.38;2074546;28;20103;-51
2023/08/01 00:20:39;;;;;;;6.18;2.78;;;;;;;27.92;52.76;98157.38;2086825;28;20075;-51
2023/08/01 00:21:41;;;;;;;3.92;2.70;;;;;;;27.94;52.46;98161.44;2084389;28;20059;-54
2023/08/01 00:22:41;;;;;;;5.13;3.05;;;;;;;27.96;52.34;98155.72;2082431;28;20139;-52
2023/08/01 00:23:43;;;;;;;9.50;2.70;;;;;;;27.94;52.23;98150.53;2081661;28;20815;-54
2023/08/01 00:24:44;;;;;;;7.32;3.17;;;;;;;27.97;52.18;98155.44;2082890;28;21022;-54
2023/08/01 00:25:51;;;;;;;6.82;2.45;;;;;;;28.00;52.29;98151.31;2073338;28;20052;-55
2023/08/01 00:26:55;;;;;;;5.68;3.20;;;;;;;27.97;52.18;98150.00;2070381;28;20066;-51
2023/08/01 00:27:56;;;;;;;3.78;2.15;;;;;;;27.99;51.99;98150.50;2076947;28;20582;-53
2023/08/01 00:28:57;;;;;;;7.72;2.65;;;;;;;28.00;52.13;98149.44;2081369;28;20079;-55
2023/08/01 00:29:58;;;;;;;7.68;3.35;;;;;;;28.00;51.90;98148.59;2079963;28;20049;-54
2023/08/01 00:31:04;;;;;;;5.30;2.40;;;;;;;27.99;51.94;98155.16;2082246;28;20048;-51
2023/08/01 00:32:06;;;;;;;6.25;3.00;;;;;;;27.94;52.23;98153.25;2079214;28;20338;-55
2023/08/01 00:33:08;;;;;;;8.07;4.15;;;;;;;27.97;52.10;98152.72;2080793;28;20135;-51
2023/08/01 00:34:08;;;;;;;4.38;3.17;;;;;;;27.96;52.22;98153.00;2086574;28;20098;-54
2023/08/01 00:35:10;;;;;;;5.00;2.40;;;;;;;27.94;52.11;98149.72;2081727;28;20052;-50
2023/08/01 00:36:12;;;;;;;7.35;2.60;;;;;;;27.98;51.99;98157.06;2085301;28;20045;-53
2023/08/01 00:37:14;;;;;;;6.38;2.35;;;;;;;27.97;51.94;98155.44;2082849;28;20049;-54
2023/08/01 00:38:15;;;;;;;8.00;2.42;;;;;;;27.96;52.22;98161.97;2082368;28;20151;-52
2023/08/01 00:39:17;;;;;;;4.97;2.45;;;;;;;27.97;51.98;98154.59;2083110;28;20052;-52
2023/08/01 00:40:17;;;;;;;7.03;3.17;;;;;;;27.95;51.99;98156.81;2083541;28;20519;-52
2023/08/01 00:41:19;;;;;;;4.80;2.70;;;;;;;27.96;51.97;98153.00;2085192;28;20044;-52
2023/08/01 00:42:20;;;;;;;9.18;2.80;;;;;;;27.95;51.83;98145.91;2083717;28;20052;-53
2023/08/01 00:43:22;;;;;;;4.45;2.60;;;;;;;27.92;52.06;98147.28;2083799;28;20040;-55
2023/08/01 00:44:23;;;;;;;9.00;3.22;;;;;;;27.90;52.19;98148.66;2083514;28;20097;-51
2023/08/01 00:45:25;;;;;;;7.25;3.10;;;;;;;27.91;52.00;98150.28;2082685;28;20085;-49
2023/08/01 00:46:26;;;;;;;6.75;2.90;;;;;;;27.93;52.00;98150.81;2085042;28;20090;-52
2023/08/01 00:47:27;;;;;;;4.43;1.95;;;;;;;27.94;51.89;98149.72;2084586;28;20095;-50
2023/08/01 00:48:28;;;;;;;5.15;2.72;;;;;;;27.94;52.05;98155.97;2087192;28;20089;-51
2023/08/01 00:49:30;;;;;;;7.40;2.67;;;;;;;27.94;51.86;98155.16;2087364;28;20266;-56
2023/08/01 00:50:33;;;;;;;7.90;2.78;;;;;;;27.94;51.79;98152.44;2086496;28;20053;-56
2023/08/01 00:51:37;;;;;;;6.82;2.90;;;;;;;27.96;51.93;98153.00;2078855;28;20055;-55
2023/08/01 00:52:38;;;;;;;7.35;3.45;;;;;;;27.95;51.77;98154.09;2081702;28;20470;-55
2023/08/01 00:53:39;;;;;;;4.60;2.47;;;;;;;27.94;51.89;98147.00;2083778;28;20060;-53
2023/08/01 00:54:41;;;;;;;4.70;2.80;;;;;;;27.96;51.79;98155.72;2083202;28;20049;-55
2023/08/01 00:55:43;;;;;;;4.47;2.88;;;;;;;27.97;51.78;98149.16;2083721;28;20105;-50
2023/08/01 00:56:44;;;;;;;3.90;2.40;;;;;;;27.98;51.91;98151.63;2082508;28;20402;-55
2023/08/01 00:57:48;;;;;;;5.55;2.53;;;;;;;27.97;51.69;98149.16;2083930;28;20169;-52
2023/08/01 00:58:48;;;;;;;7.32;3.28;;;;;;;27.98;51.64;98150.81;2082697;28;20127;-51
2023/08/01 00:59:50;;;;;;;5.57;3.10;;;;;;;27.98;51.69;98142.63;2082266;28;20049;-53
2023/08/01 01:00:51;;;;;;;4.15;2.90;;;;;;;27.98;51.64;98148.91;2083707;28;20083;-50
2023/08/01 01:01:53;;;;;;;3.92;2.40;;;;;;;27.98;51.58;98150.81;2081977;28;20053;-56
2023/08/01 01:02:53;;;;;;;6.68;2.05;;;;;;;27.97;51.52;98143.72;2085271;28;20076;-55
2023/08/01 01:03:54;;;;;;;4.97;2.28;;;;;;;27.98;51.36;98153.53;2083190;28;20052;-55
2023/08/01 01:04:56;;;;;;;6.45;2.55;;;;;;;27.98;51.25;98157.06;2085111;28;20044;-49
2023/08/01 01:06:09;;;;;;;4.97;2.72;;;;;;;27.96;51.85;98144.81;2084403;28;20072;-55
2023/08/01 01:07:13;;;;;;;6.63;2.65;;;;;;;27.94;51.74;98147.00;2081891;28;20124;-57
2023/08/01 01:08:14;;;;;;;3.92;2.75;;;;;;;27.97;51.52;98146.44;2081794;28;20135;-50
2023/08/01 01:09:16;;;;;;;4.35;3.00;;;;;;;27.98;51.63;98145.34;2073839;28;20049;-48
2023/08/01 01:10:18;;;;;;;6.78;2.83;;;;;;;27.96;51.58;98144.81;2071242;28;20091;-56
2023/08/01 01:11:18;;;;;;;7.88;2.50;;;;;;;27.98;51.69;98140.72;2072973;28;20049;-49
2023/08/01 01:12:20;;;;;;;8.63;2.63;;;;;;;28.00;51.32;98149.44;2073562;28;20048;-52
2023/08/01 01:13:21;;;;;;;6.95;2.40;;;;;;;28.00;51.35;98151.31;2081667;28;20101;-50
2023/08/01 01:14:23;;;;;;;6.55;2.78;;;;;;;27.95;51.60;98154.09;2072467;28;20053;-56
2023/08/01 01:15:24;;;;;;;7.03;2.88;;;;;;;27.99;51.54;98144.25;2072811;28;20545;-50
2023/08/01 01:16:25;;;;;;;5.30;2.75;;;;;;;27.99;51.43;98149.69;2075323;28;20052;-55
2023/08/01 01:17:26;;;;;;;8.05;2.53;;;;;;;27.94;51.52;98152.44;2073943;28;20084;-52
2023/08/01 01:18:28;;;;;;;6.47;2.58;;;;;;;27.94;51.68;98144.25;2075606;28;20060;-50
2023/08/01 01:19:29;;;;;;;7.07;3.00;;;;;;;27.96;51.62;98139.34;2073819;28;20907;-54
2023/08/01 01:20:35;;;;;;;4.45;1.95;;;;;;;27.94;51.52;98145.06;2073997;28;20053;-56
2023/08/01 01:21:38;;;;;;;7.85;3.13;;;;;;;27.91;51.76;98139.38;2074527;28;20160;-48
2023/08/01 01:22:43;;;;;;;4.75;2.40;;;;;;;27.89;51.89;98136.94;2076380;28;20071;-52
2023/08/01 01:23:44;;;;;;;5.55;3.20;;;;;;;27.85;52.08;98133.13;2078722;28;20052;-50
2023/08/01 01:24:47;;;;;;;8.90;3.38;;;;;;;27.84;52.04;98132.31;2073900;28;20797;-55
2023/08/01 01:25:49;;;;;;;6.47;2.58;;;;;;;27.84;52.45;98132.31;2074791;28;20885;-50
2023/08/01 01:26:52;;;;;;;6.68;2.95;;;;;;;27.84;52.53;98136.94;2076527;28;20048;-49
2023/08/01 01:27:54;;;;;;;3.72;2.17;;;;;;;27.87;52.51;98132.84;2074600;28;20979;-53
2023/08/01 01:28:56;;;;;;;4.72;2.50;;;;;;;27.88;52.08;98124.38;2084667;28;20510;-57
2023/08/01 01:29:57;;;;;;;4.93;2.78;;;;;;;27.89;52.11;98126.03;2082937;28;20126;-54
2023/08/01 01:30:59;;;;;;;5.28;2.97;;;;;;;27.89;51.99;98126.03;2085907;28;20045;-51
2023/08/01 01:32:00;;;;;;;7.30;3.28;;;;;;;27.91;52.01;98129.28;2086230;28;20083;-55
2023/08/01 01:33:04;;;;;;;6.88;2.55;;;;;;;27.92;51.89;98127.38;2083390;28;20052;-55
2023/08/01 01:34:05;;;;;;;6.57;2.78;;;;;;;27.90;51.85;98127.66;2080935;28;20568;-52
2023/08/01 01:35:08;;;;;;;6.40;2.60;;;;;;;27.89;51.99;98122.47;2083845;28;21486;-56
2023/08/01 01:36:10;;;;;;;6.50;2.50;;;;;;;27.90;51.92;98122.19;2081589;28;20640;-53
2023/08/01 01:37:12;;;;;;;6.47;3.03;;;;;;;27.90;51.79;98124.13;2083213;28;20040;-49
2023/08/01 01:38:13;;;;;;;6.72;2.78;;;;;;;27.90;51.88;98122.19;2084550;28;20063;-51
2023/08/01 01:39:15;;;;;;;5.35;2.90;;;;;;;27.92;51.60;98125.47;2081526;28;20511;-52
2023/08/01 01:40:15;;;;;;;6.88;2.90;;;;;;;27.91;51.98;98123.00;2083945;28;20576;-54
2023/08/01 01:41:17;;;;;;;5.63;2.67;;;;;;;27.88;52.05;98123.56;2083557;28;20094;-54
2023/08/01 01:42:18;;;;;;;5.15;2.35;;;;;;;27.90;52.01;98126.84;2083999;28;20868;-55
2023/08/01 01:43:20;;;;;;;6.75;2.05;;;;;;;27.89;51.99;98122.47;2083067;28;20048;-51
2023/08/01 01:44:21;;;;;;;7.65;2.95;;;;;;;27.92;51.82;98124.66;2081021;28;20628;-52
2023/08/01 01:45:22;;;;;;;6.78;2.38;;;;;;;27.92;52.02;98119.22;2081622;28;20056;-53
2023/08/01 01:46:23;;;;;;;5.97;2.63;;;;;;;27.91;51.94;98120.28;2078097;28;20064;-51
2023/08/01 01:47:25;;;;;;;7.05;2.42;;;;;;;27.90;51.90;98115.94;2084510;28;22030;-52
2023/08/01 01:48:25;;;;;;;10.13;3.10;;;;;;;27.90;52.12;98110.50;2086938;28;20053;-50
2023/08/01 01:49:28;;;;;;;4.13;2.90;;;;;;;27.90;52.04;98113.22;2082678;28;20057;-51
2023/08/01 01:50:28;;;;;;;7.00;2.60;;;;;;;27.90;52.22;98115.94;2086922;28;20056;-49
2023/08/01 01:51:32;;;;;;;6.68;2.78;;;;;;;27.91;52.26;98107.47;2085788;28;20591;-56
2023/08/01 01:52:33;;;;;;;5.22;2.35;;;;;;;27.88;52.32;98116.22;2082816;28;20049;-55
2023/08/01 01:53:35;;;;;;;6.03;3.55;;;;;;;27.90;52.29;98115.94;2082368;28;20051;-51
2023/08/01 01:54:36;;;;;;;7.78;2.90;;;;;;;27.86;52.14;98104.78;2079165;28;20072;-52
2023/08/01 01:55:38;;;;;;;7.15;2.45;;;;;;;27.89;52.31;98109.69;2075349;28;20048;-55
2023/08/01 01:56:38;;;;;;;6.32;2.50;;;;;;;27.89;52.42;98108.84;2085797;28;20051;-51
2023/08/01 01:57:40;;;;;;;6.13;3.15;;;;;;;27.91;52.23;98103.94;2082888;28;20503;-48
2023/08/01 01:58:41;;;;;;;5.93;2.75;;;;;;;27.91;52.11;98098.47;2083362;28;20053;-52
2023/08/01 01:59:43;;;;;;;7.00;2.88;;;;;;;27.91;52.30;98096.56;2081329;28;20049;-54
2023/08/01 02:00:44;;;;;;;7.95;3.55;;;;;;;27.87;52.58;98109.13;2086105;28;20048;-47
2023/08/01 02:01:45;;;;;;;7.82;3.88;;;;;;;27.84;52.69;98099.59;2086379;28;20053;-52
2023/08/01 02:02:46;;;;;;;4.10;3.03;;;;;;;27.85;52.42;98103.13;2084530;28;21494;-53
2023/08/01 02:03:48;;;;;;;4.97;3.22;;;;;;;27.85;52.62;98100.41;2082689;28;20160;-50
2023/08/01 02:04:50;;;;;;;5.40;2.53;;;;;;;27.84;52.46;98102.31;2084860;28;20072;-53
2023/08/01 02:05:52;;;;;;;3.28;2.42;;;;;;;27.83;52.42;98100.69;2082473;28;20139;-50
2023/08/01 02:06:54;;;;;;;6.32;2.58;;;;;;;27.76;53.06;98100.13;2083786;28;20409;-54
2023/08/01 02:07:56;;;;;;;7.80;3.13;;;;;;;27.78;52.78;98095.22;2081961;28;20080;-50
2023/08/01 02:08:57;;;;;;;5.40;2.67;;;;;;;27.78;52.49;98100.69;2085827;28;21448;-52
2023/08/01 02:09:59;;;;;;;7.45;3.65;;;;;;;27.71;52.86;98102.88;2083681;28;20048;-54
2023/08/01 02:10:59;;;;;;;7.80;3.47;;;;;;;27.67;53.28;98101.81;2081573;28;21283;-51
2023/08/01 02:12:01;;;;;;;8.23;2.97;;;;;;;27.69;53.20;98107.78;2081807;28;20581;-51
2023/08/01 02:13:02;;;;;;;7.25;3.67;;;;;;;27.73;53.14;98100.69;2083307;28;20064;-51
2023/08/01 02:14:04;;;;;;;4.53;3.17;;;;;;;27.74;52.62;98099.59;2074610;28;20787;-52
2023/08/01 02:15:06;;;;;;;5.95;2.90;;;;;;;27.76;52.65;98097.41;2080040;28;20064;-53
2023/08/01 02:16:07;;;;;;;8.05;3.55;;;;;;;27.76;52.82;98100.13;2081640;28;20041;-53
2023/08/01 02:17:08;;;;;;;8.38;3.42;;;;;;;27.74;52.93;98099.59;2082173;28;20447;-50
2023/08/01 02:18:10;;;;;;;8.98;3.10;;;;;;;27.76;52.74;98102.06;2087782;28;20056;-51
2023/08/01 02:19:11;;;;;;;5.90;2.80;;;;;;;27.65;53.30;98093.09;2081294;28;20155;-53
2023/08/01 02:20:13;;;;;;;11.77;3.58;;;;;;;27.63;53.17;98106.16;2085046;28;20053;-51
2023/08/01 02:21:13;;;;;;;7.90;3.55;;;;;;;27.61;53.18;98095.56;2084859;28;20095;-52
2023/08/01 02:22:18;;;;;;;6.10;2.88;;;;;;;27.60;53.41;98093.09;2083916;28;20057;-52
2023/08/01 02:23:18;;;;;;;14.50;4.07;;;;;;;27.63;53.34;98100.72;2084981;28;20102;-53
2023/08/01 02:24:20;;;;;;;4.40;3.20;;;;;;;27.61;53.06;98098.28;2085195;28;20804;-54
2023/08/01 02:25:21;;;;;;;8.38;3.92;;;;;;;27.56;53.61;98095.56;2086178;28;20680;-50
2023/08/01 02:26:24;;;;;;;3.97;2.90;;;;;;;27.60;53.59;98093.91;2088051;28;20102;-55
2023/08/01 02:27:24;;;;;;;6.38;3.05;;;;;;;27.61;53.24;98089.28;2085769;28;20165;-55
2023/08/01 02:28:26;;;;;;;6.85;2.63;;;;;;;27.64;53.19;98088.75;2086412;28;20048;-54
2023/08/01 02:29:27;;;;;;;6.20;4.00;;;;;;;27.58;53.68;98096.09;2080871;28;20076;-50
2023/08/01 02:30:29;;;;;;;9.45;5.18;;;;;;;27.52;53.64;98094.47;2075446;28;20137;-55
2023/08/01 02:31:29;;;;;;;11.20;3.63;;;;;;;27.54;53.53;98097.72;2076727;28;20124;-55
2023/08/01 02:32:30;;;;;;;7.88;3.15;;;;;;;27.58;53.49;98107.00;2071123;28;20188;-54
2023/08/01 02:33:32;;;;;;;4.70;2.85;;;;;;;27.59;53.29;98100.44;2073933;28;20056;-54
2023/08/01 02:34:33;;;;;;;4.43;2.90;;;;;;;27.57;53.39;98091.72;2075524;28;20053;-55
2023/08/01 02:35:35;;;;;;;6.82;2.97;;;;;;;27.58;53.63;98089.81;2077070;28;20053;-53
2023/08/01 02:36:36;;;;;;;7.28;2.33;;;;;;;27.56;53.63;98090.09;2080741;28;20133;-53
2023/08/01 02:37:39;;;;;;;4.50;2.90;;;;;;;27.55;53.51;98093.09;2087536;28;20067;-51
2023/08/01 02:38:40;;;;;;;5.22;3.00;;;;;;;27.50;53.67;98093.94;2082430;28;20461;-52
2023/08/01 02:39:42;;;;;;;8.25;2.80;;;;;;;27.49;54.09;98088.75;2086214;28;20044;-51
2023/08/01 02:40:42;;;;;;;5.85;3.00;;;;;;;27.50;53.97;98101.31;2080520;28;20629;-51
2023/08/01 02:41:44;;;;;;;5.07;2.97;;;;;;;27.52;53.88;98093.66;2075195;28;20052;-47
2023/08/01 02:42:45;;;;;;;8.38;3.55;;;;;;;27.56;53.72;98100.19;2078000;28;20140;-52
2023/08/01 02:43:47;;;;;;;8.05;3.40;;;;;;;27.51;53.89;98092.84;2069392;28;21422;-52
2023/08/01 02:44:48;;;;;;;5.97;4.05;;;;;;;27.52;53.81;98088.19;2076881;28;20057;-48
2023/08/01 02:45:50;;;;;;;11.13;3.25;;;;;;;27.53;53.79;98084.41;2076841;28;20636;-52
2023/08/01 02:46:50;;;;;;;6.85;3.65;;;;;;;27.54;53.31;98088.75;2076339;28;20587;-51
2023/08/01 02:47:51;;;;;;;5.32;3.17;;;;;;;27.46;54.01;98089.31;2078095;28;20049;-48
2023/08/01 02:48:53;;;;;;;10.98;4.38;;;;;;;27.48;53.85;98093.38;2076969;28;20053;-49
2023/08/01 02:49:54;;;;;;;9.73;3.58;;;;;;;27.51;53.62;98092.03;2076239;28;20050;-47
2023/08/01 02:50:55;;;;;;;9.40;2.72;;;;;;;27.51;53.65;98094.75;2075731;28;20552;-52
2023/08/01 02:51:56;;;;;;;6.53;3.30;;;;;;;27.52;53.81;98096.38;2076598;28;20106;-51
2023/08/01 02:52:59;;;;;;;6.18;2.75;;;;;;;27.49;53.63;98094.19;2077185;28;20057;-51
2023/08/01 02:54:00;;;;;;;9.70;3.08;;;;;;;27.48;53.57;98087.13;2075775;28;20059;-50
2023/08/01 02:55:02;;;;;;;7.65;2.85;;;;;;;27.49;53.60;98091.47;2076951;28;20044;-52
2023/08/01 02:56:04;;;;;;;4.95;2.90;;;;;;;27.47;53.75;98094.50;2077491;28;20049;-51
2023/08/01 02:57:06;;;;;;;6.20;2.75;;;;;;;27.44;54.05;98091.47;2078024;28;20128;-52
2023/08/01 02:58:07;;;;;;;4.93;2.92;;;;;;;27.40;54.08;98089.31;2076877;28;20776;-49
2023/08/01 02:59:09;;;;;;;4.50;2.95;;;;;;;27.44;54.04;98091.47;2080500;28;20049;-52
2023/08/01 03:00:11;;;;;;;7.47;3.40;;;;;;;27.46;54.06;98092.03;2079831;28;20041;-51
2023/08/01 03:01:13;;;;;;;5.53;2.80;;;;;;;27.45;53.89;98098.56;2067323;28;20079;-47
2023/08/01 03:02:14;;;;;;;3.90;2.63;;;;;;;27.48;53.53;98098.03;2076725;28;20136;-50
2023/08/01 03:03:15;;;;;;;11.80;2.38;;;;;;;27.51;53.73;98097.47;2076169;28;20076;-48
2023/08/01 03:04:17;;;;;;;5.85;3.47;;;;;;;27.53;53.45;98098.03;2077182;28;20052;-49
2023/08/01 03:05:18;;;;;;;5.30;3.25;;;;;;;27.51;53.38;98098.28;2077206;28;20073;-50
2023/08/01 03:06:19;;;;;;;10.25;3.53;;;;;;;27.48;53.65;98092.59;2082992;28;20075;-53
2023/08/01 03:07:21;;;;;;;8.45;3.17;;;;;;;27.47;53.44;98094.50;2083781;28;20048;-51
2023/08/01 03:08:25;;;;;;;7.82;3.13;;;;;;;27.47;53.30;98099.09;2084393;28;20056;-52
2023/08/01 03:09:25;;;;;;;9.90;5.18;;;;;;;27.48;53.76;98092.59;2083795;28;20072;-49
2023/08/01 03:10:27;;;;;;;6.18;3.05;;;;;;;27.48;53.68;98104.28;2087043;28;20429;-50
2023/08/01 03:11:28;;;;;;;7.32;3.13;;;;;;;27.48;53.57;98098.84;2079666;28;20159;-50
2023/08/01 03:12:30;;;;;;;6.20;3.33;;;;;;;27.47;53.59;98096.38;2083446;28;20053;-48
2023/08/01 03:13:31;;;;;;;6.20;2.92;;;;;;;27.48;53.43;98089.84;2085644;28;20114;-50
2023/08/01 03:14:33;;;;;;;6.63;2.85;;;;;;;27.51;53.30;98098.28;2084601;28;20114;-51
2023/08/01 03:15:34;;;;;;;7.70;2.67;;;;;;;27.53;53.67;98101.56;2084236;28;20044;-49
2023/08/01 03:16:36;;;;;;;4.70;3.08;;;;;;;27.54;53.35;98102.38;2084838;28;20040;-53
2023/08/01 03:17:37;;;;;;;5.97;3.63;;;;;;;27.54;53.22;98099.66;2079759;28;20044;-51
2023/08/01 03:18:38;;;;;;;4.63;2.83;;;;;;;27.55;53.41;98104.84;2082681;28;20088;-52
2023/08/01 03:19:39;;;;;;;8.02;3.70;;;;;;;27.49;53.93;98096.94;2084643;28;20072;-52
2023/08/01 03:20:41;;;;;;;10.85;3.30;;;;;;;27.48;53.78;98109.72;2087919;28;20048;-52
2023/08/01 03:21:42;;;;;;;8.27;2.72;;;;;;;27.50;53.91;98102.13;2086155;28;20093;-50
2023/08/01 03:22:43;;;;;;;8.43;3.40;;;;;;;27.51;53.52;98101.00;2084523;28;20457;-50
2023/08/01 03:23:46;;;;;;;8.32;3.08;;;;;;;27.51;53.60;98100.19;2084369;28;20052;-50
2023/08/01 03:24:47;;;;;;;4.88;2.67;;;;;;;27.52;53.81;98099.09;2086976;28;20056;-51
2023/08/01 03:25:48;;;;;;;7.65;3.47;;;;;;;27.53;53.54;98098.03;2083393;28;20089;-47
2023/08/01 03:26:50;;;;;;;6.20;3.55;;;;;;;27.55;53.33;98104.00;2085480;28;20164;-53
2023/08/01 03:27:51;;;;;;;7.65;3.28;;;;;;;27.56;53.58;98100.19;2087180;28;20103;-51
2023/08/01 03:28:52;;;;;;;3.80;2.80;;;;;;;27.59;53.16;98105.91;2086408;28;20190;-50
2023/08/01 03:29:53;;;;;;;7.03;2.92;;;;;;;27.53;53.91;98100.75;2083975;28;20069;-48
2023/08/01 03:30:55;;;;;;;7.65;3.17;;;;;;;27.52;53.55;98102.63;2084232;28;20063;-48
2023/08/01 03:31:56;;;;;;;9.20;3.53;;;;;;;27.51;54.04;98103.72;2084232;28;20156;-53
2023/08/01 03:32:57;;;;;;;7.35;2.70;;;;;;;27.52;53.72;98099.09;2082788;28;20041;-51
2023/08/01 03:33:58;;;;;;;4.93;2.67;;;;;;;27.53;53.89;98092.56;2076586;28;20950;-50
2023/08/01 03:35:00;;;;;;;7.72;2.70;;;;;;;27.54;53.78;98096.91;2084399;28;20052;-50
2023/08/01 03:36:01;;;;;;;6.78;3.45;;;;;;;27.48;53.88;98096.13;2086108;28;20140;-50
2023/08/01 03:37:03;;;;;;;13.90;3.83;;;;;;;27.43;54.34;98095.31;2083089;28;21458;-50
2023/08/01 03:38:04;;;;;;;4.35;3.00;;;;;;;27.38;54.21;98090.66;2084281;28;20045;-48
2023/08/01 03:39:09;;;;;;;8.13;4.20;;;;;;;27.34;54.20;98087.69;2086165;28;20461;-48
2023/08/01 03:40:10;;;;;;;5.30;3.00;;;;;;;27.26;54.66;98090.16;2084768;28;20044;-48
2023/08/01 03:41:12;;;;;;;5.18;3.08;;;;;;;27.30;54.31;98083.91;2085208;28;20135;-52
2023/08/01 03:42:13;;;;;;;9.80;3.22;;;;;;;27.35;54.47;98089.31;2085727;28;20045;-50
2023/08/01 03:43:15;;;;;;;4.50;2.88;;;;;;;27.38;54.58;98083.31;2088224;28;20048;-47
2023/08/01 03:44:16;;;;;;;10.13;4.45;;;;;;;27.43;54.18;98084.41;2085167;28;20552;-51
2023/08/01 03:45:18;;;;;;;5.47;2.67;;;;;;;27.46;53.87;98081.13;2086159;28;20054;-51
2023/08/01 03:46:20;;;;;;;7.55;3.45;;;;;;;27.44;54.01;98086.03;2087031;28;20052;-47
2023/08/01 03:47:21;;;;;;;8.75;2.60;;;;;;;27.44;53.95;98088.75;2082039;28;20354;-57
2023/08/01 03:48:22;;;;;;;6.45;2.78;;;;;;;27.44;54.17;98088.75;2085564;28;20544;-47
2023/08/01 03:49:24;;;;;;;6.50;3.13;;;;;;;27.46;53.95;98087.41;2085892;28;20052;-50
2023/08/01 03:50:25;;;;;;;5.38;2.90;;;;;;;27.49;54.06;98088.75;2085072;28;20098;-53
2023/08/01 03:51:27;;;;;;;9.63;4.03;;;;;;;27.46;54.22;98090.13;2083990;28;20072;-51
2023/08/01 03:52:28;;;;;;;7.95;3.30;;;;;;;27.42;54.20;98089.06;2077688;28;20067;-53
2023/08/01 03:53:30;;;;;;;8.70;2.80;;;;;;;27.44;54.09;98089.56;2078476;28;20049;-52
2023/08/01 03:54:32;;;;;;;7.70;3.50;;;;;;;27.42;54.20;98083.59;2081582;28;20076;-51
2023/08/01 03:55:34;;;;;;;5.18;3.38;;;;;;;27.43;54.34;98089.84;2083522;28;20693;-51
2023/08/01 03:56:35;;;;;;;8.40;3.55;;;;;;;27.43;54.31;98089.84;2085927;28;20144;-53
2023/08/01 03:57:38;;;;;;;7.50;3.65;;;;;;;27.45;54.24;98090.41;2086221;28;20044;-50
2023/08/01 03:58:39;;;;;;;5.57;3.08;;;;;;;27.45;54.47;98087.69;2084658;28;20419;-50
2023/08/01 03:59:40;;;;;;;6.80;2.90;;;;;;;27.48;54.20;98098.03;2082554;28;20052;-51
2023/08/01 04:00:41;;;;;;;7.18;3.25;;;;;;;27.48;54.15;98092.59;2084113;28;20079;-50
2023/08/01 04:01:43;;;;;;;6.38;3.05;;;;;;;27.48;54.35;98095.31;2079311;28;20827;-52
2023/08/01 04:02:44;;;;;;;9.75;3.45;;;;;;;27.45;54.47;98095.84;2083443;28;20045;-52
2023/08/01 04:03:46;;;;;;;8.15;4.20;;;;;;;27.36;55.29;98096.41;2081732;28;20109;-50
2023/08/01 04:04:47;;;;;;;11.75;3.45;;;;;;;27.24;55.03;98087.69;2084478;28;20415;-50
2023/08/01 04:05:49;;;;;;;10.48;3.80;;;;;;;27.21;55.67;98093.69;2084094;28;20103;-48
2023/08/01 04:06:49;;;;;;;9.32;3.72;;;;;;;27.21;55.48;98093.69;2082639;28;20048;-52
2023/08/01 04:07:54;;;;;;;9.50;3.75;;;;;;;27.20;55.72;98091.25;2087888;28;20124;-50
2023/08/01 04:08:56;;;;;;;6.22;3.92;;;;;;;26.99;56.81;98087.69;2087960;28;20106;-53
2023/08/01 04:09:59;;;;;;;7.97;4.35;;;;;;;26.94;56.14;98091.19;2086628;28;20044;-50
2023/08/01 04:11:00;;;;;;;12.00;3.55;;;;;;;26.94;56.62;98085.75;2087879;28;20087;-53
2023/08/01 04:12:02;;;;;;;6.95;3.72;;;;;;;27.03;56.43;98088.78;2086595;28;20048;-51
2023/08/01 04:13:02;;;;;;;8.80;4.85;;;;;;;27.09;56.02;98090.41;2085706;28;20083;-52
2023/08/01 04:14:04;;;;;;;10.18;4.03;;;;;;;27.10;55.79;98094.75;2086624;28;20052;-51
2023/08/01 04:15:06;;;;;;;9.55;3.30;;;;;;;27.20;55.78;98096.69;2086099;28;20060;-52
2023/08/01 04:16:08;;;;;;;5.97;4.05;;;;;;;27.24;55.21;98098.59;2087462;28;20048;-53
2023/08/01 04:17:08;;;;;;;9.98;3.78;;;;;;;27.28;55.36;98090.72;2088095;28;20080;-51
2023/08/01 04:18:10;;;;;;;10.40;3.88;;;;;;;27.33;54.90;98088.78;2087846;28;20045;-52
2023/08/01 04:19:11;;;;;;;8.65;3.17;;;;;;;27.28;55.14;98083.34;2087696;28;20052;-53
2023/08/01 04:20:13;;;;;;;10.02;4.05;;;;;;;27.28;55.14;98091.50;2085975;28;20102;-49
2023/08/01 04:21:14;;;;;;;7.13;3.22;;;;;;;27.26;55.23;98090.97;2086567;28;20049;-51
2023/08/01 04:22:16;;;;;;;6.13;3.13;;;;;;;27.24;55.46;98092.31;2085271;28;20044;-50
2023/08/01 04:23:17;;;;;;;8.45;3.50;;;;;;;27.25;55.32;98092.06;2080328;28;20097;-50
2023/08/01 04:24:18;;;;;;;8.88;3.90;;;;;;;27.25;55.13;98086.63;2086955;28;20110;-50
2023/08/01 04:25:23;;;;;;;6.38;3.85;;;;;;;27.28;55.25;98091.50;2086161;28;20090;-54
2023/08/01 04:26:25;;;;;;;7.55;3.30;;;;;;;27.26;55.50;98092.88;2085279;28;20044;-49
2023/08/01 04:27:26;;;;;;;8.45;3.92;;;;;;;27.27;55.19;98098.03;2084199;28;20056;-53
2023/08/01 04:28:28;;;;;;;6.25;3.15;;;;;;;27.28;55.25;98098.88;2087662;28;20062;-51
2023/08/01 04:29:29;;;;;;;9.77;3.78;;;;;;;27.21;55.58;98093.69;2088181;28;20449;-49
2023/08/01 04:30:30;;;;;;;7.30;3.03;;;;;;;27.23;55.45;98096.97;2087456;28;20052;-53
2023/08/01 04:31:31;;;;;;;11.13;3.67;;;;;;;27.18;55.40;98095.03;2086942;28;20048;-52
2023/08/01 04:32:33;;;;;;;8.90;4.55;;;;;;;27.19;55.28;98095.84;2086281;28;20052;-53
2023/08/01 04:33:34;;;;;;;5.95;4.03;;;;;;;27.17;55.67;98089.88;2086907;28;20152;-54
2023/08/01 04:34:35;;;;;;;11.48;3.83;;;;;;;27.21;55.33;98082.78;2086792;28;20515;-52
2023/08/01 04:35:36;;;;;;;13.05;4.35;;;;;;;27.11;55.77;98099.13;2088158;28;20052;-55
2023/08/01 04:36:37;;;;;;;10.70;3.95;;;;;;;27.09;55.58;98084.97;2089516;28;20448;-53
2023/08/01 04:37:39;;;;;;;9.15;4.20;;;;;;;27.06;56.05;98088.22;2086197;28;20068;-54
2023/08/01 04:38:39;;;;;;;12.80;4.20;;;;;;;27.06;55.85;98086.31;2087707;28;20045;-53
2023/08/01 04:39:41;;;;;;;8.98;3.67;;;;;;;27.06;56.02;98083.59;2080335;28;20055;-54
2023/08/01 04:40:44;;;;;;;10.00;3.60;;;;;;;27.08;55.94;98080.59;2086959;28;20078;-52
2023/08/01 04:41:45;;;;;;;8.27;2.92;;;;;;;27.06;56.26;98074.63;2086775;28;20052;-49
2023/08/01 04:42:46;;;;;;;8.50;4.75;;;;;;;27.08;55.81;98084.16;2088179;28;20057;-54
2023/08/01 04:43:47;;;;;;;5.70;3.80;;;;;;;27.05;56.10;98084.69;2085379;28;20188;-51
2023/08/01 04:44:49;;;;;;;7.65;3.65;;;;;;;27.08;55.81;98086.88;2089811;28;20048;-51
2023/08/01 04:45:49;;;;;;;11.75;3.88;;;;;;;27.03;56.35;98084.16;2088582;28;20087;-54
2023/08/01 04:46:50;;;;;;;7.75;3.83;;;;;;;27.04;56.21;98077.59;2088691;28;20052;-50
2023/08/01 04:47:52;;;;;;;12.05;3.75;;;;;;;27.07;55.94;98076.25;2088075;28;20069;-49
2023/08/01 04:48:52;;;;;;;6.95;3.55;;;;;;;27.08;56.08;98072.41;2086807;28;21052;-49